NCAR-RAP Real-Time Weather Data

Output produced by METARs form (06 May 2021  17:09 UTC)
found at http://weather.rap.ucar.edu/surface/
 
KMLT 061653Z AUTO 29010G19KT 9SM BKN026 OVC040 09/06 A2971 RMK AO2 SLP067 T00940056
KMLT 061615Z AUTO 32015G20KT 10SM SCT024 BKN032 OVC050 11/04 A2970 RMK AO2 T01060044
KMLT 061553Z AUTO VRB05KT 10SM SCT021 BKN026 OVC060 10/06 A2969 RMK AO2 SLP062 T01000056
KMLT 061453Z AUTO 35004KT 10SM FEW009 BKN018 OVC024 08/05 A2969 RMK AO2 SLP060 T00830050 53008
KMLT 061443Z AUTO 32004KT 10SM FEW009 BKN015 OVC022 08/06 A2969 RMK AO2 T00830056
KMLT 061404Z AUTO VRB03KT 10SM FEW009 OVC014 07/05 A2968 RMK AO2 T00720050
KMLT 061353Z AUTO 32003KT 10SM SCT009 OVC016 07/05 A2968 RMK AO2 SLP056 T00670050
KMLT 061253Z AUTO 36003KT 10SM FEW008 FEW013 OVC020 06/04 A2967 RMK AO2 SLP054 T00610044
KMLT 061227Z AUTO 34005KT 6SM BR SCT006 BKN018 OVC025 06/04 A2967 RMK AO2 T00610044
KMLT 061214Z AUTO 36003KT 3SM BR SCT006 BKN010 OVC025 06/04 A2967 RMK AO2 T00610044
KMLT 061200Z AUTO 00000KT 2 1/2SM BR BKN006 OVC023 06/04 A2966 RMK AO2 T00610044
KMLT 061153Z AUTO 32003KT 3SM BR SCT006 OVC022 06/04 A2967 RMK AO2 SLP053 60006 70043 T00610044 10061 20056 51008
KMLT 061150Z AUTO 32003KT 3SM BR SCT005 OVC022 06/04 A2967 RMK AO2
KMLT 061134Z AUTO 33003KT 2 1/2SM BR FEW004 BKN017 OVC021 06/04 A2966 RMK AO2 T00610044
KMLT 061115Z AUTO 34003KT 9SM OVC015 06/04 A2966 RMK AO2 T00560044
KMLT 061053Z AUTO 00000KT 10SM FEW008 OVC012 06/04 A2966 RMK AO2 SLP051 T00560044
KMLT 061036Z AUTO 00000KT 10SM SCT007 OVC014 06/04 A2965 RMK AO2 T00560044
KMLT 061015Z AUTO 00000KT 10SM OVC012 06/04 A2965 RMK AO2 T00560044
KMLT 060953Z AUTO 03004KT 10SM OVC007 06/04 A2964 RMK AO2 RAE00 CIG 005V011 SLP044 P0000 T00560044
KMLT 060939Z AUTO VRB03KT 10SM BKN008 OVC012 06/04 A2963 RMK AO2 RAE00 CIG 005V009 P0000 T00560044
KMLT 060930Z AUTO 01003KT 10SM OVC010 06/04 A2964 RMK AO2 RAE00 CIG 007V014 P0000 T00560044
KMLT 060853Z AUTO 34003KT 10SM -RA OVC006 06/05 A2963 RMK AO2 SLP041 P0003 60006 T00560050 56012
KMLT 060753Z AUTO 35004KT 10SM -RA OVC007 06/04 A2964 RMK AO2 SLP043 P0001 T00560044
KMLT 060724Z AUTO 34003KT 10SM -RA BKN008 OVC016 06/04 A2965 RMK AO2 P0000 T00560044
KMLT 060708Z AUTO 33003KT 8SM -RA OVC015 06/04 A2965 RMK AO2 P0000 T00560044
KMLT 060653Z AUTO 34003KT 8SM -RA OVC013 06/04 A2965 RMK AO2 SLP048 P0002 T00560044
KMLT 060553Z AUTO 35003KT 10SM -RA OVC013 06/04 A2967 RMK AO2 SLP052 P0003 60027 T00560044 10061 20056 56020
KMLT 060453Z AUTO 02003KT 8SM -RA OVC014 06/04 A2968 RMK AO2 SLP059 P0004 T00560044 400940056
KMLT 060444Z AUTO 00000KT 6SM -RA BR OVC014 06/04 A2969 RMK AO2 P0003 T00560044
KMLT 060413Z AUTO 00000KT 10SM -RA OVC015 06/05 A2970 RMK AO2 P0001 T00560050
KMLT 060353Z AUTO 02003KT 8SM -RA BKN013 OVC019 06/04 A2971 RMK AO2 SLP067 P0004 T00610044
KMLT 060253Z AUTO 10003KT 9SM -RA FEW008 BKN026 OVC034 06/05 A2973 RMK AO2 SLP073 P0005 60016 T00610050 58006
KMLT 060227Z AUTO 10006KT 7SM -RA SCT009 SCT013 OVC020 06/05 A2973 RMK AO2 P0003 T00610050
KMLT 060153Z AUTO 09005KT 5SM -RA BR BKN007 OVC011 06/06 A2974 RMK AO2 SLP077 P0006 T00610056